Time;durP1;ratioP1;P1;durP2;ratioP2;P2;SDS_P1;SDS_P2;PMS_P1;PMS_P2;Temp;Humidity;BMP_temperature;BMP_pressure;BME280_temperature;BME280_humidity;BME280_pressure;Samples;Min_cycle;Max_cycle;Signal;HPM_P1;HPM_P2
2023/06/02 00:00:12;;;;;;;2.65;2.55;;;;;;;;;;4912327;29;20051;-77
2023/06/02 00:02:41;;;;;;;2.95;2.75;;;;;;;;;;4908526;29;20044;-77
2023/06/02 00:05:09;;;;;;;3.05;2.80;;;;;;;;;;4910054;29;20518;-77
2023/06/02 00:07:37;;;;;;;2.80;2.60;;;;;;;;;;4909306;29;20048;-77
2023/06/02 00:10:05;;;;;;;3.22;2.65;;;;;;;;;;4907407;29;20071;-77
2023/06/02 00:12:32;;;;;;;2.75;2.55;;;;;;;;;;4911197;29;20417;-77
2023/06/02 00:15:00;;;;;;;2.97;2.78;;;;;;;;;;4911024;29;20056;-77
2023/06/02 00:17:28;;;;;;;3.00;2.80;;;;;;;;;;4890706;29;20056;-77
2023/06/02 00:19:56;;;;;;;4.82;2.90;;;;;;;;;;4906483;29;20521;-77
2023/06/02 00:22:29;;;;;;;2.80;2.60;;;;;;;;;;4910057;29;20067;-77
2023/06/02 00:24:56;;;;;;;2.80;2.30;;;;;;;;;;4908993;29;20052;-77
2023/06/02 00:27:24;;;;;;;3.10;2.90;;;;;;;;;;4916059;29;20168;-77
2023/06/02 00:29:51;;;;;;;2.75;2.55;;;;;;;;;;4912114;29;20043;-77
2023/06/02 00:32:19;;;;;;;2.30;2.20;;;;;;;;;;4909280;29;20040;-76
2023/06/02 00:34:46;;;;;;;2.58;2.40;;;;;;;;;;4911932;29;20127;-77
2023/06/02 00:37:14;;;;;;;2.75;2.55;;;;;;;;;;4914538;29;20184;-77
2023/06/02 00:39:41;;;;;;;3.20;3.00;;;;;;;;;;4906423;29;20033;-77
2023/06/02 00:42:10;;;;;;;3.88;3.20;;;;;;;;;;4921660;29;20308;-77
2023/06/02 00:44:38;;;;;;;3.38;3.08;;;;;;;;;;4913316;29;20060;-77
2023/06/02 00:47:06;;;;;;;3.63;3.33;;;;;;;;;;4914585;29;20056;-77
2023/06/02 00:49:33;;;;;;;4.35;3.40;;;;;;;;;;4913648;29;20102;-77
2023/06/02 00:52:01;;;;;;;3.75;3.45;;;;;;;;;;4909616;29;20116;-77
2023/06/02 00:54:28;;;;;;;3.45;3.15;;;;;;;;;;4911303;29;20051;-77
2023/06/02 00:56:57;;;;;;;2.85;2.65;;;;;;;;;;4932645;29;20413;-77
2023/06/02 00:59:24;;;;;;;4.25;2.75;;;;;;;;;;4910930;29;20044;-77
2023/06/02 01:01:54;;;;;;;2.92;2.72;;;;;;;;;;4909090;29;20056;-77
2023/06/02 01:04:21;;;;;;;2.92;2.72;;;;;;;;;;4906823;29;20070;-76
2023/06/02 01:06:50;;;;;;;2.85;2.65;;;;;;;;;;4907897;29;20048;-77
2023/06/02 01:09:18;;;;;;;3.45;2.70;;;;;;;;;;4910401;29;20055;-76
2023/06/02 01:11:49;;;;;;;2.40;2.30;;;;;;;;;;4902670;29;20075;-77
2023/06/02 01:14:17;;;;;;;2.93;2.73;;;;;;;;;;4905330;29;20051;-77
2023/06/02 01:16:44;;;;;;;2.60;2.50;;;;;;;;;;4906432;29;20127;-77
2023/06/02 01:19:20;;;;;;;3.05;2.85;;;;;;;;;;4909016;29;20087;-77
2023/06/02 01:21:57;;;;;;;3.22;2.92;;;;;;;;;;4909654;29;20052;-77
2023/06/02 01:24:36;;;;;;;2.97;2.78;;;;;;;;;;4904608;29;20054;-77
2023/06/02 01:27:14;;;;;;;2.50;2.40;;;;;;;;;;4907926;29;20435;-77
2023/06/02 01:29:43;;;;;;;2.78;2.58;;;;;;;;;;4908611;29;20059;-77
2023/06/02 01:32:17;;;;;;;3.22;3.03;;;;;;;;;;4903859;29;20072;-77
2023/06/02 01:34:50;;;;;;;3.20;2.90;;;;;;;;;;4923851;29;20052;-77
2023/06/02 01:37:19;;;;;;;3.35;3.15;;;;;;;;;;4913906;29;20094;-77
2023/06/02 01:39:48;;;;;;;4.05;2.90;;;;;;;;;;4912991;29;20056;-77
2023/06/02 01:42:16;;;;;;;4.32;3.00;;;;;;;;;;4891210;29;20056;-77
2023/06/02 01:44:44;;;;;;;3.15;2.85;;;;;;;;;;4905674;29;20048;-77
2023/06/02 01:47:11;;;;;;;3.45;3.17;;;;;;;;;;4905072;29;20586;-77
2023/06/02 01:49:39;;;;;;;3.40;3.10;;;;;;;;;;4908913;29;20168;-77
2023/06/02 01:52:06;;;;;;;3.38;3.17;;;;;;;;;;4909227;29;20060;-77
2023/06/02 01:54:34;;;;;;;3.17;2.97;;;;;;;;;;4909467;29;20051;-76
2023/06/02 01:57:02;;;;;;;3.17;2.97;;;;;;;;;;4911659;29;20052;-77
2023/06/02 01:59:30;;;;;;;2.83;2.63;;;;;;;;;;4907399;29;20068;-77
2023/06/02 02:01:57;;;;;;;3.20;2.90;;;;;;;;;;4904030;29;20079;-77
2023/06/02 02:04:25;;;;;;;2.88;2.67;;;;;;;;;;4916355;29;20048;-76
2023/06/02 02:06:53;;;;;;;2.70;2.50;;;;;;;;;;4907611;29;20148;-77
2023/06/02 02:09:20;;;;;;;3.55;3.25;;;;;;;;;;4904675;29;20126;-77
2023/06/02 02:11:47;;;;;;;3.45;3.15;;;;;;;;;;4906160;29;20152;-77
2023/06/02 02:14:20;;;;;;;3.67;3.38;;;;;;;;;;4922920;23;20052;-75
2023/06/02 02:16:49;;;;;;;3.58;3.28;;;;;;;;;;4948417;28;20457;-74
2023/06/02 02:19:16;;;;;;;3.78;3.33;;;;;;;;;;4946035;28;20047;-75
2023/06/02 02:21:44;;;;;;;3.28;3.08;;;;;;;;;;4947277;28;20565;-75
2023/06/02 02:24:12;;;;;;;3.25;3.05;;;;;;;;;;4948101;28;20410;-75
2023/06/02 02:26:40;;;;;;;3.47;3.28;;;;;;;;;;4950925;28;20043;-75
2023/06/02 02:29:08;;;;;;;3.80;3.50;;;;;;;;;;4947814;28;20098;-75
2023/06/02 02:31:35;;;;;;;3.63;3.33;;;;;;;;;;4946318;28;20067;-75
2023/06/02 02:34:03;;;;;;;3.33;3.05;;;;;;;;;;4947167;28;20051;-75
2023/06/02 02:36:32;;;;;;;3.85;3.50;;;;;;;;;;4940047;28;20054;-75
2023/06/02 02:39:00;;;;;;;3.60;3.30;;;;;;;;;;4945741;28;20165;-75
2023/06/02 02:41:27;;;;;;;3.80;3.50;;;;;;;;;;4953107;28;20043;-75
2023/06/02 02:43:55;;;;;;;3.30;3.00;;;;;;;;;;4957404;28;20047;-75
2023/06/02 02:46:22;;;;;;;3.17;2.95;;;;;;;;;;4940441;28;20138;-75
2023/06/02 02:48:50;;;;;;;4.40;3.00;;;;;;;;;;4949048;28;20477;-75
2023/06/02 02:51:17;;;;;;;3.85;3.22;;;;;;;;;;4946066;28;20047;-75
2023/06/02 02:53:45;;;;;;;2.92;2.72;;;;;;;;;;4946556;28;20062;-75
2023/06/02 02:56:14;;;;;;;3.72;3.30;;;;;;;;;;4946991;28;20138;-75
2023/06/02 02:58:42;;;;;;;4.03;3.63;;;;;;;;;;4962114;28;20058;-75
2023/06/02 03:01:15;;;;;;;4.15;3.80;;;;;;;;;;4963814;28;20095;-75
2023/06/02 03:03:44;;;;;;;3.92;3.63;;;;;;;;;;4963489;28;20058;-75
2023/06/02 03:06:13;;;;;;;3.97;3.65;;;;;;;;;;4952707;28;20050;-75
2023/06/02 03:08:41;;;;;;;4.50;3.80;;;;;;;;;;4945393;28;20059;-75
2023/06/02 03:11:10;;;;;;;4.47;4.07;;;;;;;;;;4948249;28;20055;-75
2023/06/02 03:13:37;;;;;;;4.82;3.75;;;;;;;;;;4945448;28;20176;-75
2023/06/02 03:16:05;;;;;;;6.00;4.28;;;;;;;;;;4945765;28;20055;-75
2023/06/02 03:18:34;;;;;;;5.57;4.80;;;;;;;;;;4974518;28;20413;-75
2023/06/02 03:21:06;;;;;;;5.78;5.28;;;;;;;;;;4951217;28;20101;-74
2023/06/02 03:23:34;;;;;;;6.30;5.43;;;;;;;;;;4955644;28;20512;-74
2023/06/02 03:26:03;;;;;;;6.22;5.47;;;;;;;;;;4975371;28;20073;-74
2023/06/02 03:28:31;;;;;;;6.90;5.20;;;;;;;;;;4944439;28;20425;-75
2023/06/02 03:30:58;;;;;;;8.27;5.63;;;;;;;;;;4951006;28;20418;-75
2023/06/02 03:33:26;;;;;;;10.05;6.45;;;;;;;;;;4939146;28;20047;-75
2023/06/02 03:35:53;;;;;;;8.85;6.47;;;;;;;;;;4947697;28;20055;-76
2023/06/02 03:38:21;;;;;;;6.80;5.60;;;;;;;;;;4972161;28;21287;-75
2023/06/02 03:40:49;;;;;;;8.82;6.15;;;;;;;;;;4943551;28;20047;-75
2023/06/02 03:43:16;;;;;;;9.40;6.40;;;;;;;;;;4941499;28;21572;-75
2023/06/02 03:45:45;;;;;;;8.80;6.50;;;;;;;;;;4943074;28;20055;-75
2023/06/02 03:48:15;;;;;;;8.48;6.32;;;;;;;;;;4982232;28;20058;-75
2023/06/02 03:50:42;;;;;;;10.93;6.78;;;;;;;;;;4943553;28;20051;-75
2023/06/02 03:53:10;;;;;;;9.85;7.10;;;;;;;;;;4953702;28;20047;-75
2023/06/02 03:55:37;;;;;;;11.77;6.78;;;;;;;;;;4978834;28;20055;-75
2023/06/02 03:58:04;;;;;;;9.07;6.30;;;;;;;;;;4948288;28;20398;-75
2023/06/02 04:00:32;;;;;;;9.20;6.57;;;;;;;;;;4980177;28;20047;-75
2023/06/02 04:03:00;;;;;;;7.65;6.20;;;;;;;;;;4947986;28;20521;-75
2023/06/02 04:05:28;;;;;;;8.45;5.82;;;;;;;;;;4979844;28;20372;-76
2023/06/02 04:07:56;;;;;;;7.53;6.05;;;;;;;;;;4947936;28;20047;-75
2023/06/02 04:10:25;;;;;;;7.65;6.10;;;;;;;;;;4979495;28;20075;-75
2023/06/02 04:12:52;;;;;;;8.30;5.60;;;;;;;;;;4947434;28;20560;-75
2023/06/02 04:15:20;;;;;;;8.07;5.63;;;;;;;;;;4946918;28;20039;-75
2023/06/02 04:17:48;;;;;;;5.63;4.90;;;;;;;;;;4947424;28;20079;-76
2023/06/02 04:20:15;;;;;;;7.05;5.57;;;;;;;;;;4976680;28;20055;-75
2023/06/02 04:22:44;;;;;;;6.78;5.63;;;;;;;;;;4946266;28;20103;-75
2023/06/02 04:25:12;;;;;;;7.72;5.35;;;;;;;;;;4948852;28;20051;-75
2023/06/02 04:27:39;;;;;;;7.07;5.53;;;;;;;;;;4950484;28;20130;-74
2023/06/02 04:30:08;;;;;;;7.05;5.38;;;;;;;;;;4946485;28;20374;-75
2023/06/02 04:32:36;;;;;;;7.45;5.07;;;;;;;;;;4948980;28;20059;-75
2023/06/02 04:35:04;;;;;;;6.68;5.25;;;;;;;;;;4980842;28;20104;-75
2023/06/02 04:37:33;;;;;;;5.70;5.18;;;;;;;;;;4949069;28;20051;-75
2023/06/02 04:40:03;;;;;;;5.88;4.70;;;;;;;;;;4980979;28;20055;-75
2023/06/02 04:42:32;;;;;;;5.05;4.50;;;;;;;;;;4989750;28;20517;-75
2023/06/02 04:45:00;;;;;;;4.90;4.50;;;;;;;;;;4957488;28;20058;-75
2023/06/02 04:47:28;;;;;;;5.00;4.50;;;;;;;;;;4964220;28;20055;-75
2023/06/02 04:49:56;;;;;;;4.45;4.05;;;;;;;;;;4960878;28;20453;-75
2023/06/02 04:52:24;;;;;;;4.25;3.85;;;;;;;;;;4951131;28;20101;-76
2023/06/02 04:54:51;;;;;;;3.63;3.33;;;;;;;;;;4954421;28;20047;-75
2023/06/02 04:57:19;;;;;;;3.20;3.00;;;;;;;;;;4948447;28;20053;-75
2023/06/02 04:59:47;;;;;;;3.38;3.17;;;;;;;;;;4949244;28;20051;-74
2023/06/02 05:02:15;;;;;;;4.18;3.78;;;;;;;;;;4948228;28;20501;-75
2023/06/02 05:04:43;;;;;;;4.95;3.75;;;;;;;;;;4979740;28;20458;-75
2023/06/02 05:07:10;;;;;;;4.03;3.72;;;;;;;;;;4948938;28;20059;-75
2023/06/02 05:09:38;;;;;;;3.90;3.60;;;;;;;;;;4948109;28;20059;-75
2023/06/02 05:12:06;;;;;;;3.55;3.35;;;;;;;;;;4948927;28;20097;-75
2023/06/02 05:14:34;;;;;;;3.47;3.17;;;;;;;;;;4947912;28;20482;-75
2023/06/02 05:17:02;;;;;;;3.33;3.03;;;;;;;;;;4947697;28;20043;-75
2023/06/02 05:19:30;;;;;;;3.22;3.03;;;;;;;;;;4948310;28;20047;-75
2023/06/02 05:21:57;;;;;;;3.30;3.10;;;;;;;;;;4948268;28;20568;-75
2023/06/02 05:24:25;;;;;;;3.70;3.40;;;;;;;;;;4979706;28;20502;-76
2023/06/02 05:26:53;;;;;;;3.58;3.28;;;;;;;;;;4980055;28;20058;-75
2023/06/02 05:29:20;;;;;;;3.50;3.30;;;;;;;;;;4979448;28;20055;-75
2023/06/02 05:31:48;;;;;;;3.35;3.15;;;;;;;;;;4951692;28;20047;-75
2023/06/02 05:34:16;;;;;;;3.70;3.33;;;;;;;;;;4947443;28;20568;-76
2023/06/02 05:36:46;;;;;;;4.03;3.72;;;;;;;;;;4948488;28;20553;-74
2023/06/02 05:39:14;;;;;;;3.10;2.85;;;;;;;;;;4946698;28;20047;-74
2023/06/02 05:41:43;;;;;;;3.55;3.25;;;;;;;;;;4956754;28;20051;-74
2023/06/02 05:44:10;;;;;;;4.05;3.70;;;;;;;;;;4947729;28;20054;-74
2023/06/02 05:46:39;;;;;;;3.40;3.10;;;;;;;;;;4946643;28;20098;-74
2023/06/02 05:49:08;;;;;;;3.35;3.15;;;;;;;;;;4947171;28;20786;-74
2023/06/02 05:51:37;;;;;;;3.33;3.13;;;;;;;;;;4946481;28;20043;-74
2023/06/02 05:54:08;;;;;;;3.33;3.08;;;;;;;;;;4958894;28;20047;-74
2023/06/02 05:56:36;;;;;;;3.38;3.08;;;;;;;;;;4949900;28;20047;-74
2023/06/02 05:59:04;;;;;;;3.13;2.92;;;;;;;;;;4946958;28;20051;-74
2023/06/02 06:01:32;;;;;;;3.88;3.42;;;;;;;;;;4979280;28;20067;-74
2023/06/02 06:04:00;;;;;;;3.97;3.67;;;;;;;;;;4956046;28;20059;-73
2023/06/02 06:06:28;;;;;;;4.05;3.65;;;;;;;;;;4977016;28;20067;-74
2023/06/02 06:08:55;;;;;;;4.20;3.90;;;;;;;;;;4977304;28;20047;-74
2023/06/02 06:11:24;;;;;;;4.05;3.70;;;;;;;;;;4945154;28;20070;-74
2023/06/02 06:13:53;;;;;;;3.70;3.50;;;;;;;;;;4945157;28;20074;-74
2023/06/02 06:16:21;;;;;;;4.07;3.78;;;;;;;;;;4945882;28;20039;-74
2023/06/02 06:18:49;;;;;;;3.45;3.25;;;;;;;;;;4946689;28;20051;-74
2023/06/02 06:21:16;;;;;;;3.50;3.20;;;;;;;;;;4948101;28;20054;-74
2023/06/02 06:23:44;;;;;;;4.00;3.70;;;;;;;;;;4947844;28;20153;-74
2023/06/02 06:26:13;;;;;;;3.92;3.67;;;;;;;;;;4948119;28;20050;-74
2023/06/02 06:28:43;;;;;;;4.00;3.70;;;;;;;;;;4948508;28;20524;-74
2023/06/02 06:31:12;;;;;;;4.95;4.50;;;;;;;;;;4964916;28;20073;-74
2023/06/02 06:33:40;;;;;;;4.43;3.88;;;;;;;;;;4965578;28;20050;-74
2023/06/02 06:36:10;;;;;;;3.92;3.63;;;;;;;;;;4949860;28;20043;-73
2023/06/02 06:38:38;;;;;;;4.03;3.72;;;;;;;;;;4947883;28;20426;-74
2023/06/02 06:41:06;;;;;;;3.60;3.35;;;;;;;;;;4943592;28;20042;-74
2023/06/02 06:43:34;;;;;;;4.25;3.95;;;;;;;;;;4978029;28;20040;-74
2023/06/02 06:46:05;;;;;;;4.18;3.88;;;;;;;;;;4953577;28;20424;-76
2023/06/02 06:48:33;;;;;;;4.22;3.85;;;;;;;;;;4947351;28;20074;-75
2023/06/02 06:51:00;;;;;;;6.55;4.22;;;;;;;;;;4946805;28;20045;-75
2023/06/02 06:53:28;;;;;;;3.58;3.38;;;;;;;;;;4947540;28;20073;-75
2023/06/02 06:55:55;;;;;;;3.45;3.20;;;;;;;;;;4947384;28;20051;-75
2023/06/02 06:58:23;;;;;;;3.80;3.40;;;;;;;;;;4947115;28;20304;-74
2023/06/02 07:00:50;;;;;;;3.63;3.35;;;;;;;;;;4946715;28;20043;-75
2023/06/02 07:03:18;;;;;;;4.47;4.18;;;;;;;;;;4948577;28;20054;-75
2023/06/02 07:05:46;;;;;;;3.83;3.53;;;;;;;;;;4948296;28;20059;-75
2023/06/02 07:08:13;;;;;;;4.20;3.80;;;;;;;;;;4947080;28;20050;-75
2023/06/02 07:10:41;;;;;;;3.33;3.13;;;;;;;;;;4945451;28;20051;-75
2023/06/02 07:13:08;;;;;;;3.20;3.00;;;;;;;;;;4948328;28;20055;-75
2023/06/02 07:15:36;;;;;;;3.28;3.08;;;;;;;;;;4945183;28;20098;-75
2023/06/02 07:18:04;;;;;;;3.50;3.30;;;;;;;;;;4945201;28;20556;-74
2023/06/02 07:20:32;;;;;;;3.47;3.28;;;;;;;;;;4946569;28;20490;-75
2023/06/02 07:22:59;;;;;;;3.75;3.40;;;;;;;;;;4948155;28;20173;-75
2023/06/02 07:25:26;;;;;;;4.65;4.25;;;;;;;;;;4945859;28;20557;-75
2023/06/02 07:27:54;;;;;;;3.63;3.33;;;;;;;;;;4946027;28;20051;-74
2023/06/02 07:30:22;;;;;;;3.58;3.30;;;;;;;;;;4946212;28;20043;-75
2023/06/02 07:32:49;;;;;;;3.65;3.35;;;;;;;;;;4949560;28;20051;-74
2023/06/02 07:35:17;;;;;;;3.33;3.10;;;;;;;;;;4951159;28;20547;-74
2023/06/02 07:37:44;;;;;;;3.70;3.40;;;;;;;;;;4948184;28;20039;-75
2023/06/02 07:40:12;;;;;;;3.75;3.42;;;;;;;;;;4950033;28;20551;-75
2023/06/02 07:42:39;;;;;;;3.25;2.95;;;;;;;;;;4950703;28;20376;-74
2023/06/02 07:45:07;;;;;;;3.42;3.22;;;;;;;;;;4950140;28;20058;-75
2023/06/02 07:47:35;;;;;;;3.00;2.80;;;;;;;;;;4950238;28;20059;-75
2023/06/02 07:50:02;;;;;;;3.55;3.17;;;;;;;;;;4949874;28;20134;-75
2023/06/02 07:52:30;;;;;;;2.80;2.60;;;;;;;;;;4949990;28;20055;-75
2023/06/02 07:54:57;;;;;;;3.17;2.97;;;;;;;;;;4949956;28;20122;-75
2023/06/02 07:57:25;;;;;;;4.55;3.10;;;;;;;;;;4955307;28;20047;-76
2023/06/02 07:59:54;;;;;;;3.40;3.10;;;;;;;;;;4949830;28;20098;-75
2023/06/02 08:02:21;;;;;;;2.63;2.45;;;;;;;;;;4949036;28;20102;-76
2023/06/02 08:04:53;;;;;;;3.95;3.28;;;;;;;;;;4948650;28;20082;-75
2023/06/02 08:07:21;;;;;;;3.53;3.22;;;;;;;;;;4952331;28;20124;-76
2023/06/02 08:09:48;;;;;;;3.13;2.92;;;;;;;;;;4948918;28;20122;-76
2023/06/02 08:12:16;;;;;;;4.50;3.17;;;;;;;;;;4950124;28;20104;-76
2023/06/02 08:14:47;;;;;;;3.20;3.00;;;;;;;;;;5006253;23;20063;-89
2023/06/02 08:22:10;;;;;;;2.50;2.40;;;;;;;;;;4939990;28;20086;-88
2023/06/02 08:25:58;;;;;;;2.80;2.60;;;;;;;;;;4939552;28;20141;-89
2023/06/02 08:33:33;;;;;;;2.50;2.40;;;;;;;;;;4926005;29;20043;-89
2023/06/02 08:44:41;;;;;;;2.28;2.17;;;;;;;;;;4953682;28;20031;-89
2023/06/02 08:47:12;;;;;;;2.70;2.50;;;;;;;;;;4942957;28;20059;-77
2023/06/02 08:49:42;;;;;;;3.05;2.75;;;;;;;;;;4945643;28;20095;-76
2023/06/02 08:52:16;;;;;;;3.00;2.70;;;;;;;;;;4935714;28;20577;-78
2023/06/02 08:54:44;;;;;;;2.45;2.35;;;;;;;;;;4932752;29;20103;-78
2023/06/02 08:57:16;;;;;;;2.40;2.20;;;;;;;;;;4930806;29;20058;-77
2023/06/02 08:59:44;;;;;;;2.50;2.28;;;;;;;;;;4924090;29;20392;-78
2023/06/02 09:02:12;;;;;;;2.13;2.03;;;;;;;;;;4932788;29;20076;-77
2023/06/02 09:04:40;;;;;;;2.00;1.90;;;;;;;;;;4934033;29;20142;-78
2023/06/02 09:07:13;;;;;;;1.90;1.80;;;;;;;;;;4929905;29;20083;-77
2023/06/02 09:09:42;;;;;;;1.75;1.65;;;;;;;;;;4925071;29;20130;-78
2023/06/02 09:12:09;;;;;;;2.58;2.38;;;;;;;;;;4929501;28;20532;-78
2023/06/02 09:14:37;;;;;;;2.70;2.50;;;;;;;;;;4934614;29;20044;-78
2023/06/02 09:17:24;;;;;;;2.50;2.30;;;;;;;;;;4929494;28;20146;-77
2023/06/02 09:19:53;;;;;;;2.55;2.35;;;;;;;;;;4939602;29;20480;-76
2023/06/02 09:22:21;;;;;;;2.08;1.95;;;;;;;;;;4932936;28;20086;-77
2023/06/02 09:24:48;;;;;;;1.95;1.85;;;;;;;;;;4928059;29;20099;-76
2023/06/02 09:27:16;;;;;;;2.10;2.00;;;;;;;;;;4932123;29;20103;-78
2023/06/02 09:29:45;;;;;;;1.67;1.58;;;;;;;;;;4921014;29;20048;-77
2023/06/02 09:32:14;;;;;;;1.80;1.70;;;;;;;;;;4930103;29;20047;-77
2023/06/02 09:34:43;;;;;;;1.95;1.85;;;;;;;;;;4926162;29;20058;-78
2023/06/02 09:37:13;;;;;;;2.22;2.10;;;;;;;;;;4936761;29;20044;-76
2023/06/02 09:39:46;;;;;;;2.22;2.00;;;;;;;;;;4931411;29;20040;-76
2023/06/02 09:42:14;;;;;;;3.47;1.83;;;;;;;;;;4932501;29;20055;-76
2023/06/02 09:45:01;;;;;;;2.50;2.30;;;;;;;;;;4925219;29;20682;-77
2023/06/02 09:47:29;;;;;;;2.40;2.30;;;;;;;;;;4944382;28;20047;-78
2023/06/02 09:49:57;;;;;;;2.42;2.22;;;;;;;;;;4931715;28;20056;-76
2023/06/02 09:52:25;;;;;;;2.63;2.53;;;;;;;;;;4931130;29;20352;-77
2023/06/02 09:54:52;;;;;;;2.70;2.50;;;;;;;;;;4930297;29;20097;-77
2023/06/02 09:57:20;;;;;;;2.63;2.10;;;;;;;;;;4931810;29;20048;-77
2023/06/02 09:59:47;;;;;;;2.10;2.00;;;;;;;;;;4926126;29;20127;-76
2023/06/02 10:02:16;;;;;;;2.20;2.10;;;;;;;;;;4932171;29;20497;-77
2023/06/02 10:04:45;;;;;;;2.08;1.98;;;;;;;;;;4929432;29;20053;-78
2023/06/02 10:07:34;;;;;;;3.22;2.55;;;;;;;;;;4917674;29;20060;-77
2023/06/02 10:10:09;;;;;;;2.40;2.17;;;;;;;;;;4934676;29;20505;-77
2023/06/02 10:12:39;;;;;;;2.45;2.35;;;;;;;;;;4914200;28;20126;-79
2023/06/02 10:15:26;;;;;;;2.40;2.30;;;;;;;;;;4927272;29;20043;-78
2023/06/02 10:17:57;;;;;;;2.42;2.22;;;;;;;;;;4936730;29;20501;-77
2023/06/02 10:20:24;;;;;;;2.08;1.98;;;;;;;;;;4927775;29;20174;-75
2023/06/02 10:23:13;;;;;;;2.15;2.05;;;;;;;;;;4918959;29;20051;-77
2023/06/02 10:25:52;;;;;;;2.55;2.00;;;;;;;;;;4918863;28;20115;-75
2023/06/02 10:28:31;;;;;;;2.65;1.98;;;;;;;;;;4923850;29;20178;-76
2023/06/02 10:31:12;;;;;;;2.10;2.00;;;;;;;;;;4922204;29;20052;-76
2023/06/02 10:33:47;;;;;;;2.00;1.90;;;;;;;;;;4927009;29;20082;-76
2023/06/02 10:36:21;;;;;;;2.20;2.05;;;;;;;;;;4917731;29;20052;-77
2023/06/02 10:38:53;;;;;;;2.55;2.35;;;;;;;;;;4937840;29;20160;-77
2023/06/02 10:41:21;;;;;;;2.05;1.95;;;;;;;;;;4916522;29;20576;-78
2023/06/02 10:44:08;;;;;;;2.10;2.00;;;;;;;;;;4932096;28;20058;-78
2023/06/02 10:46:35;;;;;;;3.80;1.92;;;;;;;;;;4929663;29;20060;-77
2023/06/02 10:49:02;;;;;;;2.45;2.28;;;;;;;;;;4924832;29;20226;-78
2023/06/02 10:51:50;;;;;;;2.58;2.38;;;;;;;;;;4936405;28;20059;-78
2023/06/02 10:54:17;;;;;;;2.60;2.40;;;;;;;;;;4922891;29;20055;-78
2023/06/02 10:56:46;;;;;;;2.17;2.08;;;;;;;;;;4929155;29;20044;-80
2023/06/02 10:59:34;;;;;;;2.33;2.13;;;;;;;;;;4925633;29;20047;-77
2023/06/02 11:02:07;;;;;;;1.85;1.75;;;;;;;;;;4940452;28;20129;-77
2023/06/02 11:04:51;;;;;;;2.00;1.90;;;;;;;;;;4927631;29;20051;-78
2023/06/02 11:07:21;;;;;;;2.33;2.20;;;;;;;;;;4932385;29;20059;-79
2023/06/02 11:09:50;;;;;;;2.20;1.92;;;;;;;;;;4930034;29;20621;-78
2023/06/02 11:12:19;;;;;;;2.78;2.10;;;;;;;;;;4934955;29;20058;-77
2023/06/02 11:15:03;;;;;;;2.20;2.10;;;;;;;;;;4929308;29;20063;-77
2023/06/02 11:17:33;;;;;;;2.28;2.17;;;;;;;;;;4933747;29;20052;-78
2023/06/02 11:20:04;;;;;;;1.67;1.58;;;;;;;;;;4928663;29;20051;-78
2023/06/02 11:22:33;;;;;;;1.95;1.85;;;;;;;;;;4933770;29;20054;-77
2023/06/02 11:25:02;;;;;;;1.98;1.88;;;;;;;;;;4935174;29;20046;-77
2023/06/02 11:27:36;;;;;;;2.30;2.10;;;;;;;;;;4937819;28;20063;-78
2023/06/02 11:30:09;;;;;;;1.77;1.67;;;;;;;;;;4930759;29;20576;-78
2023/06/02 11:32:37;;;;;;;2.30;2.20;;;;;;;;;;4914486;29;20455;-77
2023/06/02 11:35:06;;;;;;;2.00;1.90;;;;;;;;;;4941501;29;20055;-77
2023/06/02 11:37:33;;;;;;;1.92;1.83;;;;;;;;;;4939775;28;20040;-78
2023/06/02 11:40:01;;;;;;;2.17;2.00;;;;;;;;;;4903205;29;20066;-78
2023/06/02 11:42:39;;;;;;;1.80;1.70;;;;;;;;;;4907833;29;20056;-81
2023/06/02 11:45:18;;;;;;;1.73;1.63;;;;;;;;;;4907524;29;20127;-79
2023/06/02 11:47:47;;;;;;;1.90;1.60;;;;;;;;;;4916951;29;20502;-79
2023/06/02 11:50:17;;;;;;;1.92;1.83;;;;;;;;;;4904429;29;20051;-80
2023/06/02 11:52:45;;;;;;;1.70;1.60;;;;;;;;;;4915009;29;20086;-78
2023/06/02 11:55:15;;;;;;;1.63;1.52;;;;;;;;;;4924718;29;20715;-78
2023/06/02 11:57:43;;;;;;;1.80;1.70;;;;;;;;;;4914235;29;20257;-78
2023/06/02 12:00:15;;;;;;;1.60;1.60;;;;;;;;;;4922024;29;20045;-78
2023/06/02 12:02:48;;;;;;;1.90;1.80;;;;;;;;;;4919410;29;20583;-78
2023/06/02 12:05:36;;;;;;;2.25;2.15;;;;;;;;;;4924658;29;20130;-78
2023/06/02 12:08:14;;;;;;;2.05;1.88;;;;;;;;;;4922054;29;20059;-78
2023/06/02 12:10:42;;;;;;;1.90;1.70;;;;;;;;;;4928174;29;20048;-81
2023/06/02 12:13:10;;;;;;;1.63;1.48;;;;;;;;;;4913116;29;20051;-80
2023/06/02 12:15:38;;;;;;;1.33;1.25;;;;;;;;;;4925856;28;20437;-78
2023/06/02 12:18:06;;;;;;;1.30;1.20;;;;;;;;;;4916741;29;20447;-78
2023/06/02 12:20:39;;;;;;;1.60;1.50;;;;;;;;;;4925047;29;20088;-78
2023/06/02 12:23:10;;;;;;;1.67;1.58;;;;;;;;;;4913656;29;20052;-80
2023/06/02 12:25:38;;;;;;;1.95;1.70;;;;;;;;;;4923600;29;20054;-79
2023/06/02 12:28:12;;;;;;;1.60;1.50;;;;;;;;;;4929857;29;20056;-77
2023/06/02 12:30:40;;;;;;;1.40;1.30;;;;;;;;;;4931200;29;20466;-77
2023/06/02 12:33:12;;;;;;;1.60;1.50;;;;;;;;;;4934957;29;20167;-77
2023/06/02 12:35:40;;;;;;;1.60;1.50;;;;;;;;;;4915163;29;20419;-79
2023/06/02 12:38:09;;;;;;;1.63;1.52;;;;;;;;;;4907403;28;20307;-76
2023/06/02 12:40:37;;;;;;;1.33;1.33;;;;;;;;;;4915383;29;20054;-76
2023/06/02 12:43:05;;;;;;;1.30;1.30;;;;;;;;;;4915679;29;20471;-79
2023/06/02 12:45:33;;;;;;;0.95;0.88;;;;;;;;;;4913432;29;20052;-80
2023/06/02 12:48:01;;;;;;;1.23;1.10;;;;;;;;;;4924581;29;20044;-79
2023/06/02 12:50:29;;;;;;;1.10;1.10;;;;;;;;;;4916445;29;20055;-78
2023/06/02 12:52:57;;;;;;;0.90;0.90;;;;;;;;;;4933441;29;20048;-79
2023/06/02 12:55:26;;;;;;;1.17;1.17;;;;;;;;;;4928631;29;20495;-79
2023/06/02 12:57:54;;;;;;;1.02;1.02;;;;;;;;;;4929340;29;20080;-77
2023/06/02 13:00:21;;;;;;;1.02;1.02;;;;;;;;;;4935493;28;20055;-78
2023/06/02 13:02:49;;;;;;;1.10;1.10;;;;;;;;;;4918352;29;20123;-78
2023/06/02 13:05:17;;;;;;;0.90;0.90;;;;;;;;;;4918361;29;20048;-77
2023/06/02 13:07:44;;;;;;;1.30;1.20;;;;;;;;;;4924544;29;20054;-77
2023/06/02 13:10:12;;;;;;;1.50;1.40;;;;;;;;;;4924336;29;20051;-77
2023/06/02 13:12:40;;;;;;;1.17;1.17;;;;;;;;;;4923868;29;20123;-78
2023/06/02 13:15:08;;;;;;;1.20;1.10;;;;;;;;;;4928943;29;20134;-79
2023/06/02 13:17:36;;;;;;;1.00;1.00;;;;;;;;;;4939033;28;20062;-77
2023/06/02 13:20:04;;;;;;;1.20;1.10;;;;;;;;;;4929723;29;20577;-78
2023/06/02 13:22:32;;;;;;;1.50;1.40;;;;;;;;;;4928107;28;20653;-78
2023/06/02 13:25:00;;;;;;;1.45;1.35;;;;;;;;;;4931435;29;20043;-77
2023/06/02 13:27:28;;;;;;;1.10;1.10;;;;;;;;;;4926120;29;20047;-76
2023/06/02 13:30:09;;;;;;;1.00;1.00;;;;;;;;;;4927054;29;20055;-79
2023/06/02 13:32:36;;;;;;;1.02;1.02;;;;;;;;;;4940198;29;20800;-77
2023/06/02 13:35:04;;;;;;;1.00;1.00;;;;;;;;;;4933908;29;20055;-78
2023/06/02 13:37:33;;;;;;;1.20;1.20;;;;;;;;;;4934637;29;20574;-80
2023/06/02 13:40:01;;;;;;;1.30;1.30;;;;;;;;;;4934007;29;20348;-78
2023/06/02 13:42:31;;;;;;;1.23;1.10;;;;;;;;;;4923444;28;20426;-78
2023/06/02 13:44:58;;;;;;;1.30;1.20;;;;;;;;;;4912068;29;20059;-79
2023/06/02 13:47:26;;;;;;;1.10;1.10;;;;;;;;;;4913996;29;20047;-80
2023/06/02 13:49:54;;;;;;;1.27;1.27;;;;;;;;;;4920022;29;20056;-79
2023/06/02 13:52:21;;;;;;;1.30;1.20;;;;;;;;;;4925045;29;20486;-78
2023/06/02 13:54:49;;;;;;;1.58;1.48;;;;;;;;;;4939757;29;20055;-79
2023/06/02 13:57:16;;;;;;;1.30;1.20;;;;;;;;;;4937910;28;20121;-77
2023/06/02 13:59:44;;;;;;;1.65;1.55;;;;;;;;;;4946120;28;20058;-77
2023/06/02 14:02:11;;;;;;;1.63;1.55;;;;;;;;;;4929782;29;20418;-77
2023/06/02 14:04:40;;;;;;;1.95;1.83;;;;;;;;;;4921404;29;20059;-78
2023/06/02 14:07:07;;;;;;;1.50;1.40;;;;;;;;;;4925901;29;20517;-79
2023/06/02 14:09:34;;;;;;;1.20;1.20;;;;;;;;;;4930830;29;20055;-78
2023/06/02 14:12:02;;;;;;;1.40;1.30;;;;;;;;;;4923415;29;20063;-78
2023/06/02 14:14:31;;;;;;;1.50;1.45;;;;;;;;;;4931616;29;20353;-79
2023/06/02 14:16:58;;;;;;;1.23;1.23;;;;;;;;;;4926846;28;20120;-77
2023/06/02 14:19:26;;;;;;;1.70;1.60;;;;;;;;;;4918795;29;20052;-80
2023/06/02 14:21:53;;;;;;;1.17;1.17;;;;;;;;;;4928063;29;20116;-78
2023/06/02 14:24:21;;;;;;;1.23;1.20;;;;;;;;;;4919524;29;20048;-76
2023/06/02 14:26:50;;;;;;;1.10;1.10;;;;;;;;;;4914902;29;20059;-79
2023/06/02 14:29:17;;;;;;;1.10;1.10;;;;;;;;;;4932178;29;20330;-77
2023/06/02 14:31:45;;;;;;;1.30;1.20;;;;;;;;;;4923432;29;20055;-77
2023/06/02 14:34:12;;;;;;;1.20;1.20;;;;;;;;;;4925372;28;20065;-78
2023/06/02 14:36:40;;;;;;;1.65;1.55;;;;;;;;;;4917703;29;20472;-80
2023/06/02 14:39:08;;;;;;;1.63;1.52;;;;;;;;;;4919097;29;20488;-78
2023/06/02 14:41:36;;;;;;;1.30;1.30;;;;;;;;;;4925473;29;20520;-77
2023/06/02 14:44:03;;;;;;;1.42;1.42;;;;;;;;;;4931839;28;20048;-76
2023/06/02 14:46:31;;;;;;;1.45;1.45;;;;;;;;;;4912331;29;20055;-79
2023/06/02 14:48:58;;;;;;;1.23;1.13;;;;;;;;;;4914076;29;20202;-77
2023/06/02 14:51:26;;;;;;;1.25;1.15;;;;;;;;;;4912787;28;20067;-79
2023/06/02 14:53:55;;;;;;;1.08;1.08;;;;;;;;;;4923261;29;20082;-76
2023/06/02 14:56:24;;;;;;;1.10;1.10;;;;;;;;;;4914205;28;20052;-78
2023/06/02 14:58:52;;;;;;;1.10;1.10;;;;;;;;;;4926786;29;20474;-77
2023/06/02 15:01:36;;;;;;;1.60;1.50;;;;;;;;;;4928564;29;20143;-78
2023/06/02 15:04:04;;;;;;;1.60;1.50;;;;;;;;;;4935114;28;20111;-76
2023/06/02 15:06:37;;;;;;;;;;;;;;;;;;4923721;29;20357;-77
2023/06/02 15:09:05;;;;;;;1.60;1.50;;;;;;;;;;4914333;29;19997;-77
2023/06/02 15:11:32;;;;;;;1.60;1.50;;;;;;;;;;4911770;29;20558;-77
2023/06/02 15:14:00;;;;;;;1.60;1.52;;;;;;;;;;4926381;29;20052;-75